Time;durP1;ratioP1;P1;durP2;ratioP2;P2;SDS_P1;SDS_P2;PMS_P1;PMS_P2;Temp;Humidity;BMP_temperature;BMP_pressure;BME280_temperature;BME280_humidity;BME280_pressure;Samples;Min_cycle;Max_cycle;Signal;HPM_P1;HPM_P2
2022/10/03 00:21:13;;;;;;;;;;;;;;;14.04;72.69;99494.56;4205152;34;34374;-92
2022/10/03 00:38:37;;;;;;;;;;;;;;;13.97;72.34;99508.69;4217771;33;31726;-95
2022/10/03 00:41:38;;;;;;;;;;;;;;;14.18;71.71;99512.41;4250816;33;34490;-93
2022/10/03 00:47:37;;;;;;;;;;;;;;;14.26;70.83;99510.41;4229007;33;33429;-93
2022/10/03 00:50:22;;;;;;;;;;;;;;;14.26;70.83;99515.63;4196691;34;32593;-93
2022/10/03 01:12:39;;;;;;;;;;;;;;;13.91;72.05;99487.16;4131757;34;34850;-94
2022/10/03 01:15:46;;;;;;;;;;;;;;;13.63;72.90;99509.69;4109308;34;33878;-93
2022/10/03 01:21:26;;;;;;;;;;;;;;;13.96;71.46;99506.13;4146936;34;33155;-93
2022/10/03 01:31:28;;;;;;;;;;;;;;;13.90;72.08;99535.84;4120139;34;35421;-94
2022/10/03 01:34:14;;;;;;;;;;;;;;;14.18;70.53;99532.41;4108101;34;35182;-92
2022/10/03 01:53:40;;;;;;;;;;;;;;;13.50;72.59;99544.78;4171936;34;33484;-94
2022/10/03 02:03:24;;;;;;;;;;;;;;;13.84;71.50;99544.72;4222090;33;34985;-95
2022/10/03 02:06:01;;;;;;;;;;;;;;;13.65;72.29;99551.31;4222910;33;33973;-95
2022/10/03 02:08:49;;;;;;;;;;;;;;;13.66;72.12;99547.84;4213847;33;33322;-92
2022/10/03 02:11:33;;;;;;;;;;;;;;;13.57;72.56;99543.72;4216276;33;34404;-92
2022/10/03 02:24:08;;;;;;;;;;;;;;;13.69;72.03;99552.09;4172981;34;34978;-94
2022/10/03 02:30:24;;;;;;;;;;;;;;;13.45;72.78;99563.16;4168793;34;35674;-91
2022/10/03 02:32:58;;;;;;;;;;;;;;;13.65;71.91;99566.97;4183590;34;33845;-93
2022/10/03 02:36:13;;;;;;;;;;;;;;;13.68;71.65;99568.66;4174797;34;32889;-93
2022/10/03 02:45:44;;;;;;;;;;;;;;;13.51;72.08;99576.94;4143912;34;34641;-94
2022/10/03 02:48:48;;;;;;;;;;;;;;;13.43;72.47;99579.72;4147929;34;35361;-91
2022/10/03 02:52:17;;;;;;;;;;;;;;;13.52;71.96;99579.50;4149028;34;34408;-95
2022/10/03 02:54:58;;;;;;;;;;;;;;;13.66;71.10;99576.50;4155297;34;33279;-92
2022/10/03 03:00:29;;;;;;;;;;;;;;;13.86;70.21;99573.34;4171111;34;36432;-93
2022/10/03 03:03:37;;;;;;;;;;;;;;;13.75;70.29;99565.84;4166820;34;34320;-94
2022/10/03 03:09:41;;;;;;;;;;;;;;;13.52;71.34;99570.81;4171302;34;33878;-93
2022/10/03 03:15:36;;;;;;;;;;;;;;;13.85;69.59;99569.03;4176216;33;35637;-91
2022/10/03 03:18:11;;;;;;;;;;;;;;;13.68;70.23;99579.94;4205095;33;34255;-93
2022/10/03 03:20:44;;;;;;;;;;;;;;;13.52;70.52;99587.31;4214662;33;33175;-93
2022/10/03 03:26:47;;;;;;;;;;;;;;;13.91;69.01;99581.87;4215958;33;34653;-93
2022/10/03 03:29:24;;;;;;;;;;;;;;;13.89;69.21;99588.87;4206260;33;34133;-93
2022/10/03 03:31:54;;;;;;;;;;;;;;;13.83;69.18;99578.66;4224494;33;34558;-92
2022/10/03 03:34:31;;;;;;;;;;;;;;;13.74;69.52;99578.91;4200526;33;35034;-93
2022/10/03 03:37:10;;;;;;;;;;;;;;;13.68;69.57;99576.47;4213020;33;35201;-92
2022/10/03 03:39:56;;;;;;;;;;;;;;;13.81;68.94;99578.69;4215463;33;33961;-93
2022/10/03 03:42:40;;;;;;;;;;;;;;;13.80;69.01;99584.81;4227489;33;34813;-93
2022/10/03 03:45:22;;;;;;;;;;;;;;;14.04;68.12;99590.22;4223568;33;34638;-92
2022/10/03 03:47:57;;;;;;;;;;;;;;;13.60;69.58;99593.19;4212259;33;35894;-95
2022/10/03 03:50:44;;;;;;;;;;;;;;;13.62;69.83;99595.72;4201653;33;32312;-92
2022/10/03 03:53:20;;;;;;;;;;;;;;;13.55;70.02;99597.63;4225456;33;33862;-92
2022/10/03 03:56:26;;;;;;;;;;;;;;;13.68;69.33;99594.72;4218134;33;34069;-92
2022/10/03 03:58:57;;;;;;;;;;;;;;;13.75;69.14;99593.62;4219048;33;34379;-94
2022/10/03 04:01:55;;;;;;;;;;;;;;;14.04;67.84;99591.06;4208206;34;32568;-91
2022/10/03 04:04:32;;;;;;;;;;;;;;;13.95;68.26;99593.09;4194681;33;34222;-93
2022/10/03 04:07:03;;;;;;;;;;;;;;;13.54;69.63;99598.56;4209920;33;35273;-94
2022/10/03 04:09:44;;;;;;;;;;;;;;;13.34;70.68;99595.63;4226138;33;33254;-92
2022/10/03 04:13:03;;;;;;;;;;;;;;;13.74;69.07;99597.16;4219800;33;34238;-94
2022/10/03 04:50:42;;;;;;;;;;;;;;;13.79;68.06;99631.78;4056587;35;35061;-93
2022/10/03 04:53:45;;;;;;;;;;;;;;;13.44;69.43;99636.19;4074522;35;33765;-93
2022/10/03 04:56:23;;;;;;;;;;;;;;;13.41;69.75;99638.88;4113464;34;33258;-94
2022/10/03 04:59:03;;;;;;;;;;;;;;;13.47;69.45;99643.06;4145395;34;34439;-92
2022/10/03 05:01:34;;;;;;;;;;;;;;;13.47;69.11;99632.63;4138589;34;33855;-92
2022/10/03 05:04:16;;;;;;;;;;;;;;;13.11;70.77;99641.28;4139627;34;33593;-93
2022/10/03 05:09:58;;;;;;;;;;;;;;;13.16;70.87;99646.41;4138893;34;35281;-93
2022/10/03 05:13:00;;;;;;;;;;;;;;;13.29;70.00;99655.66;4147599;34;34390;-94
2022/10/03 05:15:47;;;;;;;;;;;;;;;13.19;70.52;99655.00;4153297;34;34647;-92
2022/10/03 05:24:34;;;;;;;;;;;;;;;12.74;72.56;99649.97;4134583;34;34768;-92
2022/10/03 05:30:54;;;;;;;;;;;;;;;12.87;71.42;99637.53;4158635;34;35128;-93
2022/10/03 05:33:38;;;;;;;;;;;;;;;12.77;72.32;99631.69;4143179;34;33147;-93
2022/10/03 05:43:31;;;;;;;;;;;;;;;12.88;71.03;99634.03;4205722;33;36572;-94
2022/10/03 06:02:52;;;;;;;;;;;;;;;12.96;70.29;99652.94;4122167;34;34531;-93
2022/10/03 06:06:06;;;;;;;;;;;;;;;13.05;70.18;99667.50;4136464;34;33844;-93
2022/10/03 06:12:13;;;;;;;;;;;;;;;13.36;68.71;99675.47;4125982;34;35313;-93
2022/10/03 06:22:43;;;;;;;;;;;;;;;13.35;67.73;99694.59;4119324;34;34020;-92
2022/10/03 06:25:59;;;;;;;;;;;;;;;13.38;66.85;99707.53;4106150;34;35834;-95
2022/10/03 06:29:57;;;;;;;;;;;;;;;13.34;67.34;99712.88;4121628;34;35247;-93
2022/10/03 06:33:19;;;;;;;;;;;;;;;13.39;66.12;99708.41;4119475;34;34203;-93
2022/10/03 06:36:10;;;;;;;;;;;;;;;13.46;66.01;99704.75;4120488;34;34119;-93
2022/10/03 06:41:58;;;;;;;;;;;;;;;13.72;64.68;99716.25;4129207;34;35570;-92
2022/10/03 06:44:44;;;;;;;;;;;;;;;13.71;65.32;99715.41;4149419;34;33486;-92
2022/10/03 06:47:39;;;;;;;;;;;;;;;13.78;64.33;99716.12;4150997;34;33928;-94
2022/10/03 06:50:32;;;;;;;;;;;;;;;13.88;64.25;99707.16;4149550;34;34247;-92
2022/10/03 06:53:25;;;;;;;;;;;;;;;14.12;63.73;99712.63;4118837;34;32918;-93
2022/10/03 06:56:14;;;;;;;;;;;;;;;14.08;62.63;99717.88;4132273;34;32909;-92
2022/10/03 06:58:58;;;;;;;;;;;;;;;13.91;63.10;99704.44;4155798;34;35408;-92
2022/10/03 07:02:03;;;;;;;;;;;;;;;13.76;62.98;99699.66;4168863;34;33390;-92
2022/10/03 07:12:05;;;;;;;;;;;;;;;13.86;62.64;99701.97;4123336;34;34300;-93
2022/10/03 07:15:00;;;;;;;;;;;;;;;13.99;62.29;99702.50;4136114;34;34626;-92
2022/10/03 07:31:48;;;;;;;;;;;;;;;14.29;62.06;99739.94;4121129;34;34748;-93
2022/10/03 07:35:18;;;;;;;;;;;;;;;14.28;61.94;99734.78;4091564;35;32549;-93
2022/10/03 07:42:05;;;;;;;;;;;;;;;14.53;60.77;99724.50;4066981;35;34257;-92
2022/10/03 07:44:49;;;;;;;;;;;;;;;14.35;61.73;99733.69;4086640;35;33444;-92
2022/10/03 07:51:27;;;;;;;;;;;;;;;14.39;61.17;99734.47;4084905;35;32694;-94
2022/10/03 07:54:03;;;;;;;;;;;;;;;14.61;60.32;99740.81;4092946;35;34498;-92
2022/10/03 07:57:12;;;;;;;;;;;;;;;14.69;60.02;99737.97;4176229;29;33175;-93
2022/10/03 08:00:13;;;;;;;;;;;;;;;14.74;60.34;99725.66;4116216;34;30966;-95
2022/10/03 08:03:00;;;;;;;;;;;;;;;14.90;59.48;99758.22;4137536;34;34733;-92
2022/10/03 08:05:38;;;;;;;;;;;;;;;14.86;59.26;99746.19;4147770;34;33019;-90
2022/10/03 08:08:22;;;;;;;;;;;;;;;15.11;58.08;99743.69;4156977;34;34204;-91
2022/10/03 08:11:00;;;;;;;;;;;;;;;15.07;57.54;99749.87;4174411;34;33997;-92
2022/10/03 08:13:46;;;;;;;;;;;;;;;15.11;57.44;99748.06;4200409;34;34089;-91
2022/10/03 08:19:25;;;;;;;;;;;;;;;14.93;58.60;99742.50;4184119;34;34312;-94
2022/10/03 08:22:17;;;;;;;;;;;;;;;14.64;57.46;99745.09;4203837;34;32347;-95
2022/10/03 08:25:21;;;;;;;;;;;;;;;;;;;;;
2022/10/03 08:28:04;;;;;;;;;;;;;;;14.90;57.56;99742.56;4200126;34;36362;-94
2022/10/03 08:30:56;;;;;;;;;;;;;;;14.90;57.43;99739.09;4211232;34;34657;-91
2022/10/03 08:33:59;;;;;;;;;;;;;;;15.17;55.60;99740.00;4198469;34;33391;-92
2022/10/03 08:36:44;;;;;;;;;;;;;;;15.27;55.39;99711.81;4199626;34;33298;-95
2022/10/03 08:39:21;;;;;;;;;;;;;;;15.15;53.85;99737.47;4204261;34;33465;-94
2022/10/03 08:41:58;;;;;;;;;;;;;;;15.21;55.37;99744.25;4214250;34;35052;-94
2022/10/03 08:45:08;;;;;;;;;;;;;;;15.32;55.40;99726.47;4213262;34;33557;-92
2022/10/03 08:47:57;;;;;;;;;;;;;;;15.31;54.75;99732.59;4211248;34;34516;-91
2022/10/03 08:53:39;;;;;;;;;;;;;;;15.29;55.39;99731.78;4192135;34;32400;-91
2022/10/03 08:59:19;;;;;;;;;;;;;;;15.50;54.19;99745.06;4195669;34;37979;-93
2022/10/03 09:02:13;;;;;;;;;;;;;;;15.67;54.31;99736.69;4201583;34;33752;-93
2022/10/03 09:05:09;;;;;;;;;;;;;;;15.57;53.51;99757.91;4201708;34;33586;-94
2022/10/03 09:08:12;;;;;;;;;;;;;;;15.52;54.56;99748.50;4196111;34;33566;-91
2022/10/03 09:10:56;;;;;;;;;;;;;;;15.65;53.87;99746.31;4166132;34;34356;-94
2022/10/03 09:13:40;;;;;;;;;;;;;;;15.52;53.83;99743.28;4166861;34;34518;-91
2022/10/03 09:16:47;;;;;;;;;;;;;;;15.61;54.41;99739.47;4166443;34;32440;-93
2022/10/03 09:19:36;;;;;;;;;;;;;;;15.83;53.88;99760.59;4172074;34;32852;-93
2022/10/03 09:22:18;;;;;;;;;;;;;;;15.92;54.34;99753.31;4159852;34;33852;-92
2022/10/03 09:25:18;;;;;;;;;;;;;;;15.88;54.15;99743.84;4165724;34;33837;-92
2022/10/03 09:27:56;;;;;;;;;;;;;;;15.91;52.99;99763.81;4171682;34;34469;-91
2022/10/03 09:30:28;;;;;;;;;;;;;;;15.98;54.13;99753.06;4160953;34;32356;-94
2022/10/03 09:33:54;;;;;;;;;;;;;;;16.22;53.88;99750.53;4164285;34;35104;-92
2022/10/03 09:36:59;;;;;;;;;;;;;;;16.43;54.36;99754.16;4163768;34;34050;-92
2022/10/03 09:39:35;;;;;;;;;;;;;;;16.12;53.94;99760.47;4158642;34;35399;-92
2022/10/03 09:42:10;;;;;;;;;;;;;;;16.18;53.66;99765.47;4169877;34;34125;-93
2022/10/03 09:45:17;;;;;;;;;;;;;;;16.56;53.59;99765.00;4172154;34;32702;-93
2022/10/03 09:51:20;;;;;;;;;;;;;;;16.44;52.57;99766.31;4179459;34;33186;-92
2022/10/03 09:54:15;;;;;;;;;;;;;;;16.19;52.91;99758.50;4199135;34;34053;-93
2022/10/03 09:57:05;;;;;;;;;;;;;;;16.19;53.11;99769.81;4201620;34;33862;-93
2022/10/03 09:59:46;;;;;;;;;;;;;;;16.28;53.30;99775.62;4203689;34;33923;-94
2022/10/03 10:02:53;;;;;;;;;;;;;;;16.17;51.36;99770.78;4200598;34;34419;-92
2022/10/03 10:05:52;;;;;;;;;;;;;;;15.88;53.16;99774.38;4187621;34;32553;-92
2022/10/03 10:09:21;;;;;;;;;;;;;;;16.04;53.20;99770.31;4197446;34;34436;-91
2022/10/03 10:12:00;;;;;;;;;;;;;;;16.28;51.64;99768.59;4201545;34;35093;-93
2022/10/03 10:15:13;;;;;;;;;;;;;;;16.04;51.70;99767.69;4182048;34;33561;-93
2022/10/03 10:18:20;;;;;;;;;;;;;;;15.99;52.33;99774.84;4182822;34;34761;-92
2022/10/03 10:21:03;;;;;;;;;;;;;;;15.95;51.26;99771.50;4169172;34;34223;-94
2022/10/03 10:23:38;;;;;;;;;;;;;;;15.99;51.77;99772.25;4159789;34;35288;-92
2022/10/03 10:26:23;;;;;;;;;;;;;;;15.85;52.27;99767.50;4184888;34;34164;-94
2022/10/03 10:29:10;;;;;;;;;;;;;;;15.98;52.27;99765.31;4202230;34;33168;-92
2022/10/03 10:32:18;;;;;;;;;;;;;;;16.01;52.80;99770.44;4190256;34;32590;-93
2022/10/03 10:35:18;;;;;;;;;;;;;;;16.12;51.72;99772.69;4202279;34;34400;-91
2022/10/03 10:37:54;;;;;;;;;;;;;;;16.07;51.42;99767.63;4196254;34;33590;-91
2022/10/03 10:40:45;;;;;;;;;;;;;;;16.13;52.35;99772.63;4202555;34;33627;-93
2022/10/03 10:43:33;;;;;;;;;;;;;;;16.24;51.78;99766.16;4189372;34;32532;-91
2022/10/03 10:46:21;;;;;;;;;;;;;;;16.07;52.12;99765.00;4184811;34;34390;-91
2022/10/03 10:52:20;;;;;;;;;;;;;;;16.14;53.56;99750.78;4255613;31;7538570;-91
2022/10/03 10:55:16;;;;;;;;;;;;;;;16.17;53.39;99753.28;4479336;32;33286;-91
2022/10/03 10:57:52;;;;;;;;;;;;;;;16.24;52.74;99759.19;4492385;32;34355;-91
2022/10/03 11:00:31;;;;;;;;;;;;;;;16.50;52.63;99757.37;4486853;32;34952;-91
2022/10/03 11:03:40;;;;;;;;;;;;;;;16.24;51.83;99755.69;4485137;31;33700;-91
2022/10/03 11:06:22;;;;;;;;;;;;;;;16.53;52.12;99765.13;4468241;32;33636;-93
2022/10/03 11:12:24;;;;;;;;;;;;;;;16.07;52.44;99771.97;4483281;32;33666;-92
2022/10/03 11:15:35;;;;;;;;;;;;;;;16.31;52.06;99758.06;4416320;32;33449;-92
2022/10/03 11:19:03;;;;;;;;;;;;;;;16.47;52.61;99757.50;4345206;32;35943;-91
2022/10/03 11:21:52;;;;;;;;;;;;;;;16.43;52.03;99757.59;4391980;32;35981;-93
2022/10/03 11:25:11;;;;;;;;;;;;;;;16.41;51.98;99755.97;4371909;32;34530;-91
2022/10/03 11:27:57;;;;;;;;;;;;;;;16.24;52.11;99756.56;4380030;32;34970;-92
2022/10/03 11:30:53;;;;;;;;;;;;;;;16.41;52.34;99753.34;4393712;32;33024;-90
2022/10/03 11:33:40;;;;;;;;;;;;;;;16.55;51.52;99758.06;4389340;32;33511;-90
2022/10/03 11:36:20;;;;;;;;;;;;;;;16.39;51.65;99753.38;4404432;32;33930;-92
2022/10/03 11:38:58;;;;;;;;;;;;;;;16.49;51.86;99755.66;4439595;32;34145;-91
2022/10/03 11:41:32;;;;;;;;;;;;;;;16.38;51.60;99756.94;4436926;32;33639;-90
2022/10/03 11:44:23;;;;;;;;;;;;;;;16.45;51.98;99757.53;4420011;32;33982;-93
2022/10/03 11:50:41;;;;;;;;;;;;;;;15.96;51.77;99754.03;4468405;32;34812;-93
2022/10/03 11:53:48;;;;;;;;;;;;;;;16.05;51.86;99771.19;4433606;32;33431;-92
2022/10/03 11:56:49;;;;;;;;;;;;;;;16.18;52.14;99752.38;4468354;32;34549;-91
2022/10/03 12:00:00;;;;;;;;;;;;;;;16.53;52.01;99742.41;4458186;32;34197;-93
2022/10/03 12:02:46;;;;;;;;;;;;;;;16.84;51.28;99752.62;4466390;32;32845;-92
2022/10/03 12:05:35;;;;;;;;;;;;;;;16.90;51.00;99745.44;4462149;32;33624;-88
2022/10/03 12:11:29;;;;;;;;;;;;;;;17.06;50.27;99751.81;4461904;32;33806;-91
2022/10/03 12:14:11;;;;;;;;;;;;;;;17.10;48.78;99748.13;4464341;32;33755;-92
2022/10/03 12:16:50;;;;;;;;;;;;;;;16.74;49.99;99753.84;4464595;32;35436;-93
2022/10/03 12:20:04;;;;;;;;;;;;;;;16.60;50.31;99748.28;4476055;32;34292;-91
2022/10/03 12:25:42;;;;;;;;;;;;;;;16.52;51.15;99748.53;4463881;32;33761;-90
2022/10/03 12:28:14;;;;;;;;;;;;;;;16.49;51.70;99748.66;4470915;32;33644;-91
2022/10/03 12:30:50;;;;;;;;;;;;;;;16.49;50.79;99737.34;4472830;32;36320;-93
2022/10/03 12:33:43;;;;;;;;;;;;;;;16.49;50.78;99750.44;4470874;32;34296;-91
2022/10/03 12:39:39;;;;;;;;;;;;;;;16.59;49.87;99736.09;4443613;32;32371;-92
2022/10/03 12:42:21;;;;;;;;;;;;;;;16.76;48.83;99735.44;4464441;32;33899;-90
2022/10/03 12:45:36;;;;;;;;;;;;;;;16.81;49.36;99737.00;4465569;31;34683;-92
2022/10/03 12:51:32;;;;;;;;;;;;;;;17.08;47.30;99738.62;4457367;32;33080;-92
2022/10/03 12:54:08;;;;;;;;;;;;;;;17.10;48.12;99724.53;4458126;32;34292;-91
2022/10/03 12:56:45;;;;;;;;;;;;;;;17.02;47.62;99727.47;4457771;32;34436;-92
2022/10/03 13:02:34;;;;;;;;;;;;;;;17.23;47.47;99735.44;4448042;32;31804;-89
2022/10/03 13:05:31;;;;;;;;;;;;;;;16.81;48.79;99764.97;4453520;32;34105;-93
2022/10/03 13:08:03;;;;;;;;;;;;;;;15.88;58.44;99797.94;4452463;32;34168;-89
2022/10/03 13:10:33;;;;;;;;;;;;;;;14.96;64.83;99792.94;4458842;32;33757;-92
2022/10/03 13:20:42;;;;;;;;;;;;;;;;;;;;;
2022/10/03 15:51:58;;;;;;;;;;;;;;;15.58;53.79;99754.41;4213062;33;34418;-92
2022/10/03 16:24:56;;;;;;;;;;;;;;;15.20;52.72;99780.87;4110113;34;34367;-92
2022/10/03 16:27:57;;;;;;;;;;;;;;;15.23;52.64;99776.41;4137823;34;35083;-93
2022/10/03 16:30:51;;;;;;;;;;;;;;;15.36;52.04;99767.28;4135709;34;32765;-90
2022/10/03 16:34:00;;;;;;;;;;;;;;;15.15;52.13;99781.88;4223679;33;33417;-90
2022/10/03 16:36:51;;;;;;;;;;;;;;;15.19;51.97;99780.03;4252684;33;36100;-92
2022/10/03 16:39:30;;;;;;;;;;;;;;;15.23;52.06;99780.78;4246576;33;33204;-91
2022/10/03 16:45:25;;;;;;;;;;;;;;;;;;;;;
2022/10/03 16:52:08;;;;;;;;;;;;;;;14.85;52.94;99782.78;4256436;33;36018;-90
2022/10/03 16:55:07;;;;;;;;;;;;;;;14.89;53.04;99797.47;4241627;33;34250;-91
2022/10/03 17:04:20;;;;;;;;;;;;;;;14.98;52.48;99789.38;4265934;33;36595;-91
2022/10/03 17:07:27;;;;;;;;;;;;;;;14.84;53.22;99794.16;4277957;33;34119;-91
2022/10/03 17:13:03;;;;;;;;;;;;;;;14.92;52.83;99793.00;4283256;33;36215;-90
2022/10/03 17:15:54;;;;;;;;;;;;;;;14.75;53.21;99795.25;4269678;33;34055;-93
2022/10/03 17:21:56;;;;;;;;;;;;;;;14.42;53.94;99797.00;4284594;33;34068;-91
2022/10/03 17:25:42;;;;;;;;;;;;;;;14.69;53.12;99809.34;4236847;33;34182;-92
2022/10/03 17:28:20;;;;;;;;;;;;;;;14.65;53.11;99801.66;4232539;33;35404;-91
2022/10/03 17:30:50;;;;;;;;;;;;;;;14.67;53.38;99797.25;4243124;33;35044;-94
2022/10/03 17:33:25;;;;;;;;;;;;;;;14.70;52.72;99812.81;4228054;33;33496;-93
2022/10/03 17:35:59;;;;;;;;;;;;;;;14.62;53.56;99805.19;4239846;33;34453;-93
2022/10/03 17:41:26;;;;;;;;;;;;;;;14.75;53.00;99810.09;4244345;33;34631;-91
2022/10/03 17:50:04;;;;;;;;;;;;;;;14.90;52.96;99812.25;4237341;33;34911;-90
2022/10/03 17:52:49;;;;;;;;;;;;;;;14.86;52.85;99813.22;4238877;33;35481;-92
2022/10/03 17:58:16;;;;;;;;;;;;;;;14.58;53.34;99816.63;4234238;33;33166;-91
2022/10/03 18:00:57;;;;;;;;;;;;;;;14.47;53.91;99814.28;4252641;33;35588;-92
2022/10/03 18:03:46;;;;;;;;;;;;;;;14.32;54.42;99816.44;4269221;33;35120;-91
2022/10/03 18:09:21;;;;;;;;;;;;;;;14.55;54.16;99818.47;4269915;33;33009;-95
2022/10/03 18:12:02;;;;;;;;;;;;;;;14.38;54.57;99824.97;4260796;33;34269;-91
2022/10/03 18:14:41;;;;;;;;;;;;;;;14.34;54.49;99825.09;4266909;33;34075;-90
2022/10/03 18:17:21;;;;;;;;;;;;;;;14.44;54.26;99832.63;4258068;33;33551;-93
2022/10/03 18:19:57;;;;;;;;;;;;;;;14.32;54.50;99819.91;4279073;33;33870;-92
2022/10/03 18:22:40;;;;;;;;;;;;;;;14.28;54.60;99823.50;4283672;33;33203;-92
2022/10/03 18:31:54;;;;;;;;;;;;;;;14.17;54.47;99822.91;4203963;33;35493;-90
2022/10/03 18:44:48;;;;;;;;;;;;;;;14.21;54.94;99829.78;4225125;33;35130;-90
2022/10/03 18:47:25;;;;;;;;;;;;;;;14.17;54.87;99847.25;4240742;33;35451;-93
2022/10/03 18:59:32;;;;;;;;;;;;;;;14.13;55.41;99843.00;4399941;28;19993;-90
2022/10/03 19:02:09;;;;;;;;;;;;;;;13.77;56.42;99840.41;4259175;33;34336;-90
2022/10/03 19:08:22;;;;;;;;;;;;;;;13.51;56.79;99843.63;4253866;33;36203;-90
2022/10/03 19:20:59;;;;;;;;;;;;;;;13.44;56.86;99852.47;4312880;33;33780;-96
2022/10/03 19:24:24;;;;;;;;;;;;;;;13.35;57.47;99847.47;4297560;33;35255;-91
2022/10/03 19:27:48;;;;;;;;;;;;;;;13.60;56.99;99851.25;4323671;33;34204;-92
2022/10/03 19:30:32;;;;;;;;;;;;;;;13.63;56.62;99851.16;4322017;33;34047;-93
2022/10/03 19:33:42;;;;;;;;;;;;;;;13.77;56.18;99850.84;4263886;33;34911;-93
2022/10/03 19:47:21;;;;;;;;;;;;;;;13.26;57.28;99847.63;4201701;33;34953;-92
2022/10/03 19:50:07;;;;;;;;;;;;;;;13.36;57.28;99865.69;4217776;33;35633;-92
2022/10/03 19:56:17;;;;;;;;;;;;;;;13.53;56.74;99862.69;4240915;33;35208;-90
2022/10/03 20:05:41;;;;;;;;;;;;;;;13.61;56.36;99860.75;4167902;34;34846;-92
2022/10/03 20:11:44;;;;;;;;;;;;;;;13.47;56.77;99861.97;4191188;34;35856;-92
2022/10/03 20:14:30;;;;;;;;;;;;;;;13.51;56.95;99859.28;4211197;33;33142;-93
2022/10/03 20:20:22;;;;;;;;;;;;;;;13.45;57.17;99873.28;4259638;33;33563;-93
2022/10/03 20:23:29;;;;;;;;;;;;;;;13.78;56.35;99875.16;4235024;33;34097;-93
2022/10/03 20:26:01;;;;;;;;;;;;;;;13.71;56.44;99881.41;4254473;33;34427;-91
2022/10/03 20:32:47;;;;;;;;;;;;;;;13.49;57.17;99888.88;4272419;33;34242;-92
2022/10/03 21:00:29;;;;;;;;;;;;;;;13.65;57.06;99901.53;4147448;34;34762;-91
2022/10/03 21:07:31;;;;;;;;;;;;;;;13.22;58.64;99902.41;4146894;34;34313;-91
2022/10/03 21:11:04;;;;;;;;;;;;;;;13.74;57.34;99896.97;4181808;34;33938;-92
2022/10/03 21:14:00;;;;;;;;;;;;;;;13.39;58.04;99909.91;4210601;33;33207;-92
2022/10/03 21:16:51;;;;;;;;;;;;;;;13.35;58.56;99905.62;4232250;33;34094;-92
2022/10/03 21:19:55;;;;;;;;;;;;;;;13.28;58.60;99909.25;4232458;33;35198;-90
2022/10/03 21:22:39;;;;;;;;;;;;;;;13.08;59.43;99909.66;4246028;33;34764;-90
2022/10/03 21:25:34;;;;;;;;;;;;;;;12.90;60.05;99912.59;4270823;33;32881;-91
2022/10/03 21:28:38;;;;;;;;;;;;;;;12.93;59.97;99916.00;4262922;33;35404;-91
2022/10/03 21:31:30;;;;;;;;;;;;;;;12.93;60.36;99917.78;4269474;33;35529;-92
2022/10/03 21:38:38;;;;;;;;;;;;;;;12.93;60.21;99913.41;4317932;33;34670;-92
2022/10/03 21:41:28;;;;;;;;;;;;;;;12.90;60.03;99913.47;4319521;33;34145;-90
2022/10/03 21:44:35;;;;;;;;;;;;;;;12.81;60.52;99906.69;4323720;33;34202;-92
2022/10/03 21:47:43;;;;;;;;;;;;;;;12.86;60.18;99914.41;4317254;33;34965;-90
2022/10/03 21:58:36;;;;;;;;;;;;;;;13.00;60.11;99919.38;4330257;33;35257;-90
2022/10/03 22:01:55;;;;;;;;;;;;;;;13.06;59.98;99916.63;4318866;33;35040;-90
2022/10/03 22:05:44;;;;;;;;;;;;;;;12.82;60.67;99912.75;4214177;34;33221;-92
2022/10/03 22:12:18;;;;;;;;;;;;;;;12.86;60.39;99929.19;4216280;33;36741;-91
2022/10/03 22:15:12;;;;;;;;;;;;;;;12.84;60.66;99924.00;4216115;33;34982;-93
2022/10/03 22:21:28;;;;;;;;;;;;;;;12.87;60.43;99934.34;4216902;34;34872;-93
2022/10/03 22:24:25;;;;;;;;;;;;;;;12.75;60.58;99931.97;4191970;34;34309;-92
2022/10/03 22:27:22;;;;;;;;;;;;;;;12.93;60.18;99930.78;4215921;34;36865;-90
2022/10/03 22:29:54;;;;;;;;;;;;;;;12.81;60.47;99934.47;4217505;34;34556;-91
2022/10/03 22:32:50;;;;;;;;;;;;;;;12.69;60.82;99926.88;4218709;33;36443;-91
2022/10/03 22:39:01;;;;;;;;;;;;;;;12.95;60.07;99921.16;4194519;34;34925;-92
2022/10/03 22:41:33;;;;;;;;;;;;;;;12.51;61.33;99920.25;4242038;33;32568;-92
2022/10/03 22:44:08;;;;;;;;;;;;;;;12.61;61.19;99919.19;4316258;33;34397;-90
2022/10/03 22:46:52;;;;;;;;;;;;;;;12.60;61.29;99918.34;4311112;33;34623;-92
2022/10/03 22:49:37;;;;;;;;;;;;;;;12.65;61.25;99920.88;4315811;33;34372;-91
2022/10/03 22:52:14;;;;;;;;;;;;;;;12.89;60.40;99922.16;4318944;33;32951;-91
2022/10/03 22:54:51;;;;;;;;;;;;;;;12.74;60.76;99923.31;4316752;33;34425;-90
2022/10/03 22:57:29;;;;;;;;;;;;;;;12.90;60.20;99910.88;4316734;33;35210;-92
2022/10/03 23:00:22;;;;;;;;;;;;;;;13.03;59.41;99906.28;4317987;33;35351;-92
2022/10/03 23:03:02;;;;;;;;;;;;;;;12.74;60.79;99907.69;4315730;33;34654;-93
2022/10/03 23:05:47;;;;;;;;;;;;;;;13.07;59.60;99909.66;4324068;33;33859;-91
2022/10/03 23:08:28;;;;;;;;;;;;;;;13.10;59.47;99912.22;4335240;33;34328;-90
2022/10/03 23:11:11;;;;;;;;;;;;;;;12.92;60.04;99916.03;4326930;33;35169;-91
2022/10/03 23:13:52;;;;;;;;;;;;;;;12.94;60.20;99903.84;4306577;33;33499;-91
2022/10/03 23:16:38;;;;;;;;;;;;;;;13.06;59.88;99907.97;4318879;33;33535;-91
2022/10/03 23:19:40;;;;;;;;;;;;;;;13.24;59.29;99907.59;4327719;33;35127;-92
2022/10/03 23:22:14;;;;;;;;;;;;;;;13.09;59.57;99906.12;4332312;33;34105;-91
2022/10/03 23:24:44;;;;;;;;;;;;;;;12.72;60.67;99899.03;4331609;33;33508;-90
2022/10/03 23:27:39;;;;;;;;;;;;;;;12.66;61.51;99920.00;4330687;33;34420;-89
2022/10/03 23:30:28;;;;;;;;;;;;;;;12.70;61.40;99911.22;4318571;33;34573;-91
2022/10/03 23:33:37;;;;;;;;;;;;;;;12.76;61.21;99910.28;4315241;33;33958;-94
2022/10/03 23:36:39;;;;;;;;;;;;;;;12.52;61.82;99912.44;4320580;33;33358;-92
2022/10/03 23:39:41;;;;;;;;;;;;;;;12.95;60.59;99908.16;4320945;33;35201;-91
2022/10/03 23:42:28;;;;;;;;;;;;;;;12.83;61.22;99917.09;4314664;33;34146;-91
2022/10/03 23:45:04;;;;;;;;;;;;;;;13.17;60.05;99909.47;4322228;33;35996;-90
2022/10/03 23:47:33;;;;;;;;;;;;;;;12.53;61.86;99908.91;4317341;33;33694;-93
2022/10/03 23:50:02;;;;;;;;;;;;;;;12.55;62.34;99909.75;4318137;33;32893;-91
2022/10/03 23:52:47;;;;;;;;;;;;;;;12.87;61.36;99908.31;4316145;33;32870;-90
2022/10/03 23:55:53;;;;;;;;;;;;;;;12.60;62.41;99914.88;4272156;33;35230;-91
2022/10/03 23:58:31;;;;;;;;;;;;;;;12.82;61.73;99894.53;4264446;28;33852;-92
